Time;durP1;ratioP1;P1;durP2;ratioP2;P2;SDS_P1;SDS_P2;PMS_P1;PMS_P2;Temp;Humidity;BMP_temperature;BMP_pressure;BME280_temperature;BME280_humidity;BME280_pressure;Samples;Min_cycle;Max_cycle;Signal;HPM_P1;HPM_P2
2022/10/29 00:00:41;;;;;;;;;;;19.20;95.60;;;;;;5116868;28;19931;-43
2022/10/29 00:03:06;;;;;;;;;;;19.20;95.60;;;;;;5117065;28;19908;-45
2022/10/29 00:05:32;;;;;;;;;;;19.20;95.60;;;;;;5116273;28;20362;-44
2022/10/29 00:07:58;;;;;;;;;;;19.20;95.60;;;;;;5116567;28;20026;-44
2022/10/29 00:10:23;;;;;;;;;;;19.20;95.60;;;;;;5116319;28;20421;-44
2022/10/29 00:12:49;;;;;;;;;;;19.20;95.60;;;;;;5116611;28;19914;-45
2022/10/29 00:15:14;;;;;;;;;;;19.20;95.60;;;;;;5116806;28;19969;-44
2022/10/29 00:17:40;;;;;;;;;;;19.20;95.60;;;;;;5116147;28;20427;-45
2022/10/29 00:20:06;;;;;;;;;;;19.20;95.60;;;;;;5116100;28;19907;-44
2022/10/29 00:22:31;;;;;;;;;;;19.20;95.90;;;;;;5116286;28;19911;-42
2022/10/29 00:24:57;;;;;;;;;;;19.20;95.60;;;;;;5116062;28;19907;-44
2022/10/29 00:27:22;;;;;;;;;;;19.20;95.60;;;;;;5115786;28;19958;-43
2022/10/29 00:29:48;;;;;;;;;;;19.10;95.60;;;;;;5116215;28;19937;-44
2022/10/29 00:32:13;;;;;;;;;;;19.10;95.60;;;;;;5116153;28;19908;-43
2022/10/29 00:34:39;;;;;;;;;;;19.20;95.60;;;;;;5116187;28;20409;-43
2022/10/29 00:37:05;;;;;;;;;;;19.20;95.60;;;;;;5097784;28;20247;-44
2022/10/29 00:39:32;;;;;;;;;;;19.20;95.60;;;;;;5098192;28;20311;-43
2022/10/29 00:41:58;;;;;;;;;;;19.20;95.60;;;;;;5115730;28;19908;-43
2022/10/29 00:44:26;;;;;;;;;;;19.20;95.60;;;;;;5115866;28;19961;-46
2022/10/29 00:46:54;;;;;;;;;;;19.20;95.70;;;;;;5115751;28;19915;-43
2022/10/29 00:49:19;;;;;;;;;;;19.20;95.60;;;;;;5114066;28;20385;-43
2022/10/29 00:51:45;;;;;;;;;;;19.20;95.60;;;;;;5115773;28;19908;-43
2022/10/29 00:54:12;;;;;;;;;;;19.20;95.60;;;;;;5115742;28;19912;-43
2022/10/29 00:56:40;;;;;;;;;;;19.20;95.60;;;;;;5114459;28;20381;-44
2022/10/29 00:59:06;;;;;;;;;;;19.20;95.60;;;;;;5115787;28;20236;-43
2022/10/29 01:01:32;;;;;;;;;;;19.20;95.60;;;;;;5115312;28;20491;-42
2022/10/29 01:03:59;;;;;;;;;;;19.10;95.60;;;;;;5115213;28;20006;-44
2022/10/29 01:06:25;;;;;;;;;;;19.10;95.60;;;;;;5115099;28;20003;-43
2022/10/29 01:08:52;;;;;;;;;;;19.10;95.60;;;;;;5115458;28;19924;-43
2022/10/29 01:11:24;;;;;;;;;;;19.20;95.70;;;;;;5115705;28;20085;-45
2022/10/29 01:13:55;;;;;;;;;;;19.20;95.60;;;;;;5113946;28;19919;-44
2022/10/29 01:16:20;;;;;;;;;;;19.10;95.60;;;;;;5114956;28;19961;-44
2022/10/29 01:19:00;;;;;;;;;;;19.20;95.60;;;;;;5115686;28;19907;-44
2022/10/29 01:21:25;;;;;;;;;;;19.20;95.60;;;;;;5095258;28;19908;-45
2022/10/29 01:23:51;;;;;;;;;;;19.10;95.60;;;;;;5103003;28;19914;-43
2022/10/29 01:26:52;;;;;;;;;;;19.10;95.60;;;;;;5114411;28;19922;-45
2022/10/29 01:29:36;;;;;;;;;;;19.10;95.60;;;;;;5032016;28;20317;-43
2022/10/29 01:32:17;;;;;;;;;;;19.20;95.60;;;;;;5108212;28;19904;-45
2022/10/29 01:35:01;;;;;;;;;;;19.10;95.60;;;;;;5114660;28;19903;-44
2022/10/29 01:37:40;;;;;;;;;;;19.10;95.60;;;;;;5114778;28;19903;-46
2022/10/29 01:40:12;;;;;;;;;;;19.10;95.60;;;;;;5122550;27;19907;-44
2022/10/29 01:42:39;;;;;;;;;;;19.10;95.60;;;;;;5122136;27;19918;-45
2022/10/29 01:45:10;;;;;;;;;;;19.10;95.60;;;;;;5114852;28;20365;-43
2022/10/29 01:47:39;;;;;;;;;;;19.10;95.60;;;;;;5114831;28;19918;-45
2022/10/29 01:50:07;;;;;;;;;;;19.10;95.60;;;;;;5119986;27;19915;-45
2022/10/29 01:52:34;;;;;;;;;;;19.10;95.60;;;;;;5113735;28;19987;-43
2022/10/29 01:55:00;;;;;;;;;;;19.10;95.60;;;;;;5095999;28;19994;-45
2022/10/29 01:57:28;;;;;;;;;;;19.10;95.60;;;;;;5114491;28;20008;-43
2022/10/29 01:59:56;;;;;;;;;;;19.10;95.70;;;;;;5114766;28;19908;-48
2022/10/29 02:02:45;;;;;;;;;;;19.10;95.70;;;;;;5112560;28;20049;-43
2022/10/29 02:05:10;;;;;;;;;;;19.10;95.70;;;;;;5085222;28;20304;-44
2022/10/29 02:07:36;;;;;;;;;;;19.10;95.60;;;;;;5114131;28;19931;-43
2022/10/29 02:10:04;;;;;;;;;;;19.10;95.60;;;;;;5114518;28;20401;-45
2022/10/29 02:12:33;;;;;;;;;;;19.10;95.60;;;;;;5114539;28;19920;-43
2022/10/29 02:15:03;;;;;;;;;;;19.10;95.60;;;;;;5114771;28;19916;-42
2022/10/29 02:17:30;;;;;;;;;;;19.10;95.60;;;;;;5096486;28;20381;-43
2022/10/29 02:19:55;;;;;;;;;;;19.10;95.60;;;;;;5114454;28;19934;-45
2022/10/29 02:22:21;;;;;;;;;;;19.10;95.60;;;;;;5116380;28;20265;-43
2022/10/29 02:24:46;;;;;;;;;;;19.10;95.60;;;;;;5113980;28;19931;-43
2022/10/29 02:27:12;;;;;;;;;;;19.10;95.60;;;;;;5114356;28;19933;-44
2022/10/29 02:29:37;;;;;;;;;;;19.10;95.60;;;;;;5114422;28;19922;-44
2022/10/29 02:32:03;;;;;;;;;;;19.10;95.70;;;;;;5114024;28;19908;-44
2022/10/29 02:34:28;;;;;;;;;;;19.10;95.60;;;;;;5114261;28;19908;-44
2022/10/29 02:36:54;;;;;;;;;;;19.10;95.60;;;;;;5113999;28;19947;-44
2022/10/29 02:39:19;;;;;;;;;;;19.10;95.70;;;;;;5114274;28;19915;-44
2022/10/29 02:41:45;;;;;;;;;;;19.10;95.70;;;;;;5113919;28;19962;-43
2022/10/29 02:44:10;;;;;;;;;;;19.10;95.70;;;;;;5114190;28;20282;-45
2022/10/29 02:46:38;;;;;;;;;;;19.10;95.70;;;;;;5114221;28;19962;-44
2022/10/29 02:49:04;;;;;;;;;;;19.10;95.70;;;;;;5114315;28;19918;-44
2022/10/29 02:51:30;;;;;;;;;;;19.10;95.70;;;;;;5114229;28;19912;-43
2022/10/29 02:53:55;;;;;;;;;;;19.10;95.70;;;;;;5113884;28;20037;-44
2022/10/29 02:56:21;;;;;;;;;;;19.10;95.70;;;;;;5114193;28;19914;-44
2022/10/29 02:58:46;;;;;;;;;;;19.10;95.70;;;;;;5114170;28;19915;-45
2022/10/29 03:01:11;;;;;;;;;;;19.10;95.70;;;;;;5114166;28;19933;-43
2022/10/29 03:03:37;;;;;;;;;;;19.10;95.70;;;;;;5113794;28;20366;-43
2022/10/29 03:06:02;;;;;;;;;;;19.10;95.70;;;;;;5114032;28;19912;-43
2022/10/29 03:08:28;;;;;;;;;;;19.10;95.70;;;;;;5114002;28;19924;-43
2022/10/29 03:10:54;;;;;;;;;;;19.10;95.70;;;;;;5113865;28;19908;-43
2022/10/29 03:13:19;;;;;;;;;;;19.10;95.70;;;;;;5114149;28;20347;-44
2022/10/29 03:15:45;;;;;;;;;;;19.10;95.70;;;;;;5113656;28;19946;-44
2022/10/29 03:18:10;;;;;;;;;;;19.10;95.70;;;;;;5114066;28;19908;-43
2022/10/29 03:20:36;;;;;;;;;;;19.10;95.70;;;;;;5117765;28;19915;-44
2022/10/29 03:23:01;;;;;;;;;;;19.10;95.70;;;;;;5117789;28;20342;-43
2022/10/29 03:25:27;;;;;;;;;;;19.10;95.70;;;;;;5117455;28;19915;-44
2022/10/29 03:27:52;;;;;;;;;;;19.10;95.70;;;;;;5117388;28;19915;-46
2022/10/29 03:30:18;;;;;;;;;;;19.10;95.70;;;;;;5117129;28;20010;-43
2022/10/29 03:32:44;;;;;;;;;;;19.10;95.70;;;;;;5117320;28;19915;-44
2022/10/29 03:35:11;;;;;;;;;;;19.10;95.70;;;;;;5098882;28;19912;-43
2022/10/29 03:37:36;;;;;;;;;;;19.10;95.70;;;;;;5116819;28;20259;-46
2022/10/29 03:40:02;;;;;;;;;;;19.10;95.70;;;;;;5117601;28;19915;-45
2022/10/29 03:42:30;;;;;;;;;;;19.10;95.70;;;;;;5117475;28;19925;-43
2022/10/29 03:44:56;;;;;;;;;;;19.10;95.70;;;;;;5117140;28;20007;-44
2022/10/29 03:47:22;;;;;;;;;;;19.10;95.70;;;;;;5117073;28;19916;-43
2022/10/29 03:49:47;;;;;;;;;;;19.10;95.70;;;;;;5116837;28;19987;-43
2022/10/29 03:52:13;;;;;;;;;;;19.10;95.70;;;;;;5117042;28;19907;-44
2022/10/29 03:54:38;;;;;;;;;;;19.10;95.70;;;;;;5117120;28;19912;-44
2022/10/29 03:57:03;;;;;;;;;;;19.10;95.70;;;;;;5117019;28;19977;-43
2022/10/29 03:59:29;;;;;;;;;;;19.10;95.70;;;;;;5116632;28;19953;-44
2022/10/29 04:01:54;;;;;;;;;;;19.10;95.70;;;;;;5116661;28;19933;-44
2022/10/29 04:04:20;;;;;;;;;;;19.10;95.70;;;;;;5098548;28;20281;-45
2022/10/29 04:06:45;;;;;;;;;;;19.00;95.70;;;;;;5116225;28;19969;-46
2022/10/29 04:09:11;;;;;;;;;;;19.10;95.80;;;;;;5116755;28;20273;-44
2022/10/29 04:11:36;;;;;;;;;;;19.00;95.70;;;;;;5116617;28;19908;-43
2022/10/29 04:14:02;;;;;;;;;;;19.10;95.70;;;;;;5116161;28;19914;-44
2022/10/29 04:16:27;;;;;;;;;;;19.10;95.70;;;;;;5098222;28;20351;-45
2022/10/29 04:18:52;;;;;;;;;;;19.10;95.70;;;;;;5116251;28;19914;-45
2022/10/29 04:21:18;;;;;;;;;;;19.10;95.70;;;;;;5116234;28;19934;-44
2022/10/29 04:23:43;;;;;;;;;;;19.10;95.70;;;;;;5098098;28;19946;-44
2022/10/29 04:26:09;;;;;;;;;;;19.10;95.70;;;;;;5116390;28;19964;-44
2022/10/29 04:28:35;;;;;;;;;;;19.10;95.80;;;;;;5116093;28;20267;-44
2022/10/29 04:31:08;;;;;;;;;;;19.10;95.70;;;;;;5116188;28;19908;-44
2022/10/29 04:33:34;;;;;;;;;;;19.10;95.70;;;;;;5116278;28;20239;-45
2022/10/29 04:35:59;;;;;;;;;;;19.10;95.80;;;;;;5116095;28;19907;-42
2022/10/29 04:38:25;;;;;;;;;;;19.10;95.90;;;;;;5116008;28;19953;-44
2022/10/29 04:40:50;;;;;;;;;;;19.10;95.90;;;;;;5116325;28;20358;-44
2022/10/29 04:43:16;;;;;;;;;;;19.10;95.90;;;;;;5115951;28;19915;-44
2022/10/29 04:45:42;;;;;;;;;;;19.10;95.80;;;;;;5116094;28;21874;-43
2022/10/29 04:48:07;;;;;;;;;;;19.10;96.10;;;;;;5115517;28;19920;-43
2022/10/29 04:50:35;;;;;;;;;;;19.10;96.00;;;;;;5115753;28;19943;-43
2022/10/29 04:53:01;;;;;;;;;;;19.10;96.00;;;;;;5114021;28;19959;-46
2022/10/29 04:55:27;;;;;;;;;;;19.10;96.10;;;;;;5120518;27;19912;-46
2022/10/29 04:57:53;;;;;;;;;;;19.10;96.10;;;;;;5118965;27;19912;-43
2022/10/29 05:00:18;;;;;;;;;;;19.10;96.20;;;;;;5116177;27;19939;-43
2022/10/29 05:02:48;;;;;;;;;;;19.20;96.20;;;;;;5115446;28;20313;-45
2022/10/29 05:05:14;;;;;;;;;;;19.20;96.20;;;;;;5118661;27;19919;-44
2022/10/29 05:07:39;;;;;;;;;;;19.20;96.10;;;;;;5124652;27;19919;-43
2022/10/29 05:10:05;;;;;;;;;;;19.20;96.10;;;;;;5115641;28;19960;-43
2022/10/29 05:12:30;;;;;;;;;;;19.20;96.10;;;;;;5115174;28;20365;-43
2022/10/29 05:14:56;;;;;;;;;;;19.20;96.00;;;;;;5132877;27;19911;-44
2022/10/29 05:17:21;;;;;;;;;;;19.10;95.90;;;;;;5134575;27;19907;-44
2022/10/29 05:19:47;;;;;;;;;;;19.10;96.00;;;;;;5136218;27;20255;-44
2022/10/29 05:22:12;;;;;;;;;;;19.10;95.90;;;;;;5134307;27;19973;-44
2022/10/29 05:24:38;;;;;;;;;;;19.10;95.90;;;;;;5136211;27;19947;-45
2022/10/29 05:27:06;;;;;;;;;;;19.10;95.90;;;;;;5135743;27;19969;-45
2022/10/29 05:29:32;;;;;;;;;;;19.10;95.90;;;;;;5135578;27;19911;-48
2022/10/29 05:31:58;;;;;;;;;;;19.10;95.90;;;;;;5135171;27;19912;-44
2022/10/29 05:34:23;;;;;;;;;;;19.10;95.90;;;;;;5135483;27;19915;-44
2022/10/29 05:36:49;;;;;;;;;;;19.10;95.90;;;;;;5135289;27;20366;-43
2022/10/29 05:39:14;;;;;;;;;;;19.10;95.80;;;;;;5135903;27;19907;-43
2022/10/29 05:41:40;;;;;;;;;;;19.10;95.80;;;;;;5134659;27;19943;-47
2022/10/29 05:44:05;;;;;;;;;;;19.10;95.80;;;;;;5135106;27;19908;-43
2022/10/29 05:46:31;;;;;;;;;;;19.10;95.80;;;;;;5134962;27;19912;-45
2022/10/29 05:48:56;;;;;;;;;;;19.10;95.80;;;;;;5116966;27;19943;-44
2022/10/29 05:51:22;;;;;;;;;;;19.10;95.80;;;;;;5135257;27;19907;-44
2022/10/29 05:53:47;;;;;;;;;;;19.10;95.80;;;;;;5135035;27;19974;-44
2022/10/29 05:56:13;;;;;;;;;;;19.10;95.80;;;;;;5135235;27;20357;-43
2022/10/29 05:58:38;;;;;;;;;;;19.10;95.70;;;;;;5134996;27;19915;-43
2022/10/29 06:01:04;;;;;;;;;;;19.10;95.70;;;;;;5134995;27;19907;-43
2022/10/29 06:03:30;;;;;;;;;;;19.10;95.70;;;;;;5134815;27;20305;-45
2022/10/29 06:05:55;;;;;;;;;;;19.10;95.70;;;;;;5133811;27;19915;-43
2022/10/29 06:08:21;;;;;;;;;;;19.10;95.70;;;;;;5134745;27;20046;-44
2022/10/29 06:10:46;;;;;;;;;;;19.10;95.70;;;;;;5135161;27;19907;-45
2022/10/29 06:13:13;;;;;;;;;;;19.10;95.70;;;;;;5135069;28;19939;-45
2022/10/29 06:15:39;;;;;;;;;;;19.10;95.70;;;;;;5135002;28;19911;-44
2022/10/29 06:18:04;;;;;;;;;;;19.10;95.70;;;;;;5135007;28;19930;-44
2022/10/29 06:20:30;;;;;;;;;;;19.10;95.60;;;;;;5134920;28;19994;-46
2022/10/29 06:22:56;;;;;;;;;;;19.10;95.60;;;;;;5134807;28;19907;-46
2022/10/29 06:25:22;;;;;;;;;;;19.10;95.60;;;;;;5134817;28;19908;-44
2022/10/29 06:27:47;;;;;;;;;;;19.10;95.60;;;;;;5134664;28;19939;-44
2022/10/29 06:30:13;;;;;;;;;;;19.10;95.60;;;;;;5134347;28;19908;-43
2022/10/29 06:32:38;;;;;;;;;;;19.10;95.60;;;;;;5134365;28;19947;-46
2022/10/29 06:35:04;;;;;;;;;;;19.10;95.60;;;;;;5134727;28;19991;-46
2022/10/29 06:37:32;;;;;;;;;;;19.10;95.60;;;;;;5134593;28;19912;-44
2022/10/29 06:39:57;;;;;;;;;;;19.10;95.60;;;;;;5134652;28;19908;-43
2022/10/29 06:42:23;;;;;;;;;;;19.10;95.60;;;;;;5134593;28;19987;-43
2022/10/29 06:44:48;;;;;;;;;;;19.10;95.60;;;;;;5134583;28;19911;-43
2022/10/29 06:47:14;;;;;;;;;;;19.10;95.60;;;;;;5134560;28;19915;-46
2022/10/29 06:49:39;;;;;;;;;;;19.10;95.60;;;;;;5134278;28;20384;-43
2022/10/29 06:52:04;;;;;;;;;;;19.10;95.50;;;;;;5134709;28;19907;-46
2022/10/29 06:54:30;;;;;;;;;;;19.10;95.50;;;;;;5135446;27;20319;-47
2022/10/29 06:56:55;;;;;;;;;;;19.10;95.50;;;;;;5138020;27;20001;-45
2022/10/29 06:59:23;;;;;;;;;;;19.10;95.50;;;;;;5138344;27;19915;-43
2022/10/29 07:01:48;;;;;;;;;;;19.10;95.50;;;;;;5138182;27;19911;-43
2022/10/29 07:04:14;;;;;;;;;;;19.10;95.50;;;;;;5138310;27;19915;-43
2022/10/29 07:06:39;;;;;;;;;;;19.20;95.50;;;;;;5137938;27;19967;-43
2022/10/29 07:09:05;;;;;;;;;;;19.20;95.50;;;;;;5137845;27;19907;-43
2022/10/29 07:11:30;;;;;;;;;;;19.20;95.50;;;;;;5138253;27;19994;-43
2022/10/29 07:13:55;;;;;;;;;;;19.20;95.50;;;;;;5138189;27;19933;-44
2022/10/29 07:16:21;;;;;;;;;;;19.20;95.50;;;;;;5138126;27;19933;-43
2022/10/29 07:18:46;;;;;;;;;;;19.20;95.50;;;;;;5137986;27;20296;-44
2022/10/29 07:21:12;;;;;;;;;;;19.20;95.50;;;;;;5138317;27;19907;-44
2022/10/29 07:23:38;;;;;;;;;;;19.20;95.50;;;;;;5119630;27;20403;-44
2022/10/29 07:26:03;;;;;;;;;;;19.20;95.50;;;;;;5137849;27;19934;-43
2022/10/29 07:28:29;;;;;;;;;;;19.20;95.50;;;;;;5137877;27;19937;-45
2022/10/29 07:30:57;;;;;;;;;;;19.20;95.50;;;;;;5137499;27;19907;-43
2022/10/29 07:33:23;;;;;;;;;;;19.20;95.50;;;;;;5137824;27;19907;-44
2022/10/29 07:35:48;;;;;;;;;;;19.20;95.40;;;;;;5137390;27;19912;-44
2022/10/29 07:38:14;;;;;;;;;;;19.20;95.40;;;;;;5137616;27;19911;-46
2022/10/29 07:40:45;;;;;;;;;;;19.20;95.40;;;;;;5137503;27;19914;-47
2022/10/29 07:43:10;;;;;;;;;;;19.20;95.40;;;;;;5137421;27;19908;-46
2022/10/29 07:45:36;;;;;;;;;;;19.20;95.40;;;;;;5137139;27;19915;-45
2022/10/29 07:48:02;;;;;;;;;;;19.20;95.40;;;;;;5137210;27;19919;-48
2022/10/29 07:50:28;;;;;;;;;;;19.20;95.40;;;;;;5137347;27;19934;-43
2022/10/29 07:52:54;;;;;;;;;;;19.20;95.40;;;;;;5137532;27;20266;-46
2022/10/29 07:55:19;;;;;;;;;;;19.20;95.40;;;;;;5137449;27;19907;-44
2022/10/29 07:57:45;;;;;;;;;;;19.20;95.40;;;;;;5136968;27;20345;-45
2022/10/29 08:00:11;;;;;;;;;;;19.20;95.30;;;;;;5137049;27;20354;-47
2022/10/29 08:02:37;;;;;;;;;;;19.20;95.30;;;;;;5118957;27;19907;-46
2022/10/29 08:05:03;;;;;;;;;;;19.20;95.30;;;;;;5136844;27;19914;-45
2022/10/29 08:07:28;;;;;;;;;;;19.20;95.30;;;;;;5136690;27;19923;-44
2022/10/29 08:09:54;;;;;;;;;;;19.20;95.30;;;;;;5136790;27;19908;-45
2022/10/29 08:12:20;;;;;;;;;;;19.20;95.30;;;;;;5137102;27;20017;-45
2022/10/29 08:14:45;;;;;;;;;;;19.20;95.30;;;;;;5136807;27;19908;-43
2022/10/29 08:17:11;;;;;;;;;;;19.20;95.30;;;;;;5118353;27;19908;-44
2022/10/29 08:19:36;;;;;;;;;;;19.20;95.30;;;;;;5136602;27;19914;-44
2022/10/29 08:22:01;;;;;;;;;;;19.20;95.30;;;;;;5136357;27;19907;-44
2022/10/29 08:24:27;;;;;;;;;;;19.30;95.30;;;;;;5136288;27;19914;-44
2022/10/29 08:26:52;;;;;;;;;;;19.20;95.30;;;;;;5136114;27;19918;-44
2022/10/29 08:29:18;;;;;;;;;;;19.20;95.30;;;;;;5136709;27;19968;-43
2022/10/29 08:31:43;;;;;;;;;;;19.20;95.30;;;;;;5118262;27;19915;-46
2022/10/29 08:34:09;;;;;;;;;;;19.30;95.30;;;;;;5136675;27;19908;-44
2022/10/29 08:36:34;;;;;;;;;;;19.20;95.30;;;;;;5118040;27;20319;-46
2022/10/29 08:39:00;;;;;;;;;;;19.20;95.30;;;;;;5136010;27;19915;-45
2022/10/29 08:41:39;;;;;;;;;;;19.20;95.30;;;;;;5136083;27;19914;-49
2022/10/29 08:44:16;;;;;;;;;;;19.20;95.30;;;;;;5136291;27;19960;-44
2022/10/29 08:46:46;;;;;;;;;;;19.20;95.30;;;;;;5135753;27;20323;-46
2022/10/29 08:49:16;;;;;;;;;;;19.20;95.30;;;;;;5136041;27;19956;-46
2022/10/29 08:51:43;;;;;;;;;;;19.20;95.30;;;;;;5136178;27;19911;-46
2022/10/29 08:54:11;;;;;;;;;;;19.20;95.20;;;;;;5136135;27;19911;-46
2022/10/29 08:56:38;;;;;;;;;;;19.30;95.30;;;;;;5135973;27;19953;-48
2022/10/29 08:59:15;;;;;;;;;;;19.20;95.20;;;;;;5117326;27;19908;-47
2022/10/29 09:01:40;;;;;;;;;;;19.20;95.20;;;;;;5135780;27;20273;-44
2022/10/29 09:04:23;;;;;;;;;;;19.20;95.20;;;;;;5135652;27;19994;-45
2022/10/29 09:06:48;;;;;;;;;;;19.20;95.20;;;;;;5135529;27;19938;-43
2022/10/29 09:09:20;;;;;;;;;;;19.30;95.20;;;;;;5135682;27;19907;-44
2022/10/29 09:11:46;;;;;;;;;;;19.20;95.20;;;;;;5135654;27;19911;-43
2022/10/29 09:14:47;;;;;;;;;;;19.20;95.20;;;;;;5135448;27;19969;-45
2022/10/29 09:17:19;;;;;;;;;;;19.20;95.20;;;;;;5051276;28;19909;-43
2022/10/29 09:19:53;;;;;;;;;;;19.30;95.20;;;;;;5121388;27;20196;-44
2022/10/29 09:22:22;;;;;;;;;;;19.30;95.20;;;;;;5135136;27;19911;-43
2022/10/29 09:24:53;;;;;;;;;;;19.30;95.20;;;;;;5135129;27;19915;-45
2022/10/29 09:27:27;;;;;;;;;;;19.20;95.20;;;;;;5135110;27;20362;-44
2022/10/29 09:30:00;;;;;;;;;;;19.20;95.20;;;;;;5135509;27;19911;-44
2022/10/29 09:32:45;;;;;;;;;;;19.30;95.20;;;;;;5135443;27;19907;-44
2022/10/29 09:35:15;;;;;;;;;;;19.30;95.20;;;;;;5135234;27;19908;-46
2022/10/29 09:37:48;;;;;;;;;;;19.30;95.20;;;;;;5134969;27;19907;-46
2022/10/29 09:40:23;;;;;;;;;;;19.30;95.20;;;;;;5135406;27;19911;-47
2022/10/29 09:42:49;;;;;;;;;;;19.30;95.20;;;;;;5135017;27;20366;-48
2022/10/29 09:45:16;;;;;;;;;;;19.30;95.20;;;;;;5134868;27;19908;-44
2022/10/29 09:48:07;;;;;;;;;;;19.30;95.20;;;;;;5134988;27;19911;-46
2022/10/29 09:50:39;;;;;;;;;;;19.30;95.20;;;;;;5103112;27;19919;-48
2022/10/29 09:53:04;;;;;;;;;;;19.30;95.20;;;;;;5135117;27;19908;-45
2022/10/29 09:55:52;;;;;;;;;;;19.30;95.20;;;;;;5135075;27;19907;-49
2022/10/29 09:58:25;;;;;;;;;;;19.30;95.20;;;;;;5116452;27;19951;-44
2022/10/29 10:00:52;;;;;;;;;;;19.30;95.20;;;;;;5134796;27;20017;-46
2022/10/29 10:03:24;;;;;;;;;;;19.30;95.20;;;;;;5116527;27;20364;-45
2022/10/29 10:05:55;;;;;;;;;;;19.30;95.20;;;;;;5134978;27;19908;-46
2022/10/29 10:08:21;;;;;;;;;;;19.30;95.20;;;;;;5134505;27;20025;-45
2022/10/29 10:10:51;;;;;;;;;;;19.30;95.40;;;;;;5134725;27;20338;-46
2022/10/29 10:13:17;;;;;;;;;;;19.30;95.20;;;;;;5134729;28;20304;-46
2022/10/29 10:15:48;;;;;;;;;;;19.30;95.10;;;;;;5134667;28;20010;-44
2022/10/29 10:18:21;;;;;;;;;;;19.30;95.10;;;;;;5134568;28;19953;-43
2022/10/29 10:20:58;;;;;;;;;;;19.30;95.10;;;;;;5134846;28;19915;-44
2022/10/29 10:23:29;;;;;;;;;;;19.30;95.10;;;;;;5134827;28;19908;-48
2022/10/29 10:25:55;;;;;;;;;;;19.30;95.10;;;;;;5134361;28;19952;-44
2022/10/29 10:28:33;;;;;;;;;;;19.30;95.10;;;;;;5136565;27;19915;-45
2022/10/29 10:31:14;;;;;;;;;;;19.30;95.10;;;;;;5138680;27;19917;-46
2022/10/29 10:33:48;;;;;;;;;;;19.30;95.10;;;;;;5120283;27;20349;-47
2022/10/29 10:36:14;;;;;;;;;;;19.30;95.10;;;;;;5138681;27;19915;-46
2022/10/29 10:38:44;;;;;;;;;;;19.30;95.10;;;;;;5138756;27;19914;-44
2022/10/29 10:41:10;;;;;;;;;;;19.30;95.10;;;;;;5138686;27;19908;-44
2022/10/29 10:43:36;;;;;;;;;;;19.30;95.10;;;;;;5138640;27;19907;-46
2022/10/29 10:46:09;;;;;;;;;;;19.30;95.10;;;;;;5138259;27;19969;-45
2022/10/29 10:48:35;;;;;;;;;;;19.30;95.10;;;;;;5138458;27;19911;-46
2022/10/29 10:51:23;;;;;;;;;;;19.30;95.10;;;;;;5137208;27;19907;-44
2022/10/29 10:53:49;;;;;;;;;;;19.30;95.10;;;;;;5138810;27;19958;-44
2022/10/29 10:56:16;;;;;;;;;;;19.30;95.10;;;;;;5138691;27;19960;-44
2022/10/29 10:58:45;;;;;;;;;;;19.30;95.30;;;;;;5119802;27;19907;-44
2022/10/29 11:01:12;;;;;;;;;;;19.30;95.10;;;;;;5137943;27;19968;-44
2022/10/29 11:03:42;;;;;;;;;;;19.30;95.10;;;;;;5138301;27;19914;-45
2022/10/29 11:06:14;;;;;;;;;;;19.30;95.10;;;;;;5138157;27;19958;-45
2022/10/29 11:08:45;;;;;;;;;;;19.30;95.10;;;;;;5119732;27;19919;-43
2022/10/29 11:11:14;;;;;;;;;;;19.30;95.10;;;;;;5137945;27;19960;-45
2022/10/29 11:13:40;;;;;;;;;;;19.30;95.10;;;;;;5137581;27;19907;-45
2022/10/29 11:16:11;;;;;;;;;;;19.30;95.10;;;;;;5138094;27;20369;-45
2022/10/29 11:18:39;;;;;;;;;;;19.30;95.10;;;;;;5137981;27;19907;-43
2022/10/29 11:21:13;;;;;;;;;;;19.30;95.10;;;;;;5137718;27;20337;-45
2022/10/29 11:23:53;;;;;;;;;;;19.30;95.10;;;;;;5137789;27;19918;-44
2022/10/29 11:26:28;;;;;;;;;;;19.30;95.00;;;;;;5137790;27;19919;-45
2022/10/29 11:29:11;;;;;;;;;;;19.30;95.00;;;;;;5137322;27;20431;-43
2022/10/29 11:31:51;;;;;;;;;;;19.30;95.00;;;;;;5137500;27;20002;-45
2022/10/29 11:34:36;;;;;;;;;;;19.30;95.00;;;;;;5137560;27;20277;-46
2022/10/29 11:37:14;;;;;;;;;;;19.30;95.30;;;;;;5094563;27;20040;-46
2022/10/29 11:39:46;;;;;;;;;;;19.30;95.00;;;;;;5136166;27;19951;-46
2022/10/29 11:42:12;;;;;;;;;;;19.30;95.00;;;;;;5137214;27;20369;-45
2022/10/29 11:44:38;;;;;;;;;;;19.30;95.00;;;;;;5137164;27;19914;-45
2022/10/29 11:47:29;;;;;;;;;;;19.30;95.30;;;;;;5136897;27;20437;-49
2022/10/29 11:49:57;;;;;;;;;;;19.30;95.00;;;;;;5137055;27;19907;-45
2022/10/29 11:52:35;;;;;;;;;;;19.30;95.00;;;;;;5137256;27;19933;-44
2022/10/29 11:55:12;;;;;;;;;;;19.30;95.00;;;;;;5136760;27;19908;-48
2022/10/29 11:57:50;;;;;;;;;;;19.40;95.00;;;;;;5137321;27;19908;-45
2022/10/29 12:00:17;;;;;;;;;;;19.30;95.00;;;;;;5137186;27;20059;-44
2022/10/29 12:02:45;;;;;;;;;;;19.30;95.00;;;;;;5136720;27;19907;-47
2022/10/29 12:05:24;;;;;;;;;;;19.30;95.00;;;;;;5136570;27;19994;-45
2022/10/29 12:07:55;;;;;;;;;;;19.30;95.00;;;;;;5136698;27;20022;-45
2022/10/29 12:10:36;;;;;;;;;;;19.30;95.00;;;;;;5136458;27;19998;-45
2022/10/29 12:13:08;;;;;;;;;;;19.30;95.00;;;;;;5136630;27;19908;-44
2022/10/29 12:15:45;;;;;;;;;;;19.40;95.00;;;;;;5136337;27;19908;-44
2022/10/29 12:18:13;;;;;;;;;;;19.30;95.00;;;;;;5136452;27;19907;-46
2022/10/29 12:20:51;;;;;;;;;;;19.30;95.00;;;;;;5136327;27;20411;-44
2022/10/29 12:23:28;;;;;;;;;;;19.30;95.00;;;;;;5136789;27;20451;-44
2022/10/29 12:26:09;;;;;;;;;;;19.40;95.00;;;;;;5136504;27;19994;-45
2022/10/29 12:28:49;;;;;;;;;;;19.40;95.00;;;;;;5136216;27;19937;-45
2022/10/29 12:31:34;;;;;;;;;;;19.40;95.00;;;;;;5136322;27;19907;-45
2022/10/29 12:34:11;;;;;;;;;;;19.30;95.00;;;;;;5136548;27;19907;-44
2022/10/29 12:36:53;;;;;;;;;;;19.40;95.00;;;;;;5136308;27;19913;-44
2022/10/29 12:39:26;;;;;;;;;;;19.40;95.00;;;;;;5136000;27;19919;-43
2022/10/29 12:41:52;;;;;;;;;;;19.30;95.00;;;;;;5135753;27;19908;-48
2022/10/29 12:44:26;;;;;;;;;;;19.40;95.00;;;;;;5136218;27;19907;-44
2022/10/29 12:47:04;;;;;;;;;;;19.40;95.00;;;;;;5135997;27;19956;-47
2022/10/29 12:49:59;;;;;;;;;;;19.30;95.00;;;;;;5117574;27;19949;-43
2022/10/29 12:52:40;;;;;;;;;;;19.40;95.00;;;;;;5117720;27;19907;-47
2022/10/29 12:55:08;;;;;;;;;;;19.40;95.00;;;;;;5136073;27;20243;-45
2022/10/29 12:57:34;;;;;;;;;;;19.40;95.00;;;;;;5135725;27;20379;-45
2022/10/29 13:00:18;;;;;;;;;;;19.40;95.00;;;;;;5135939;27;19994;-48
2022/10/29 13:02:44;;;;;;;;;;;19.40;95.00;;;;;;5136008;27;19960;-48
2022/10/29 13:05:09;;;;;;;;;;;19.40;95.00;;;;;;5135381;27;20354;-45
2022/10/29 13:07:35;;;;;;;;;;;19.30;94.90;;;;;;5135564;27;19926;-47
2022/10/29 13:10:19;;;;;;;;;;;19.30;94.90;;;;;;5135360;27;19907;-49
2022/10/29 13:12:54;;;;;;;;;;;19.40;95.00;;;;;;5135629;27;20420;-45
2022/10/29 13:15:26;;;;;;;;;;;19.40;95.00;;;;;;5135543;27;20357;-49
2022/10/29 13:17:53;;;;;;;;;;;19.30;94.90;;;;;;5135722;27;19908;-46
2022/10/29 13:20:24;;;;;;;;;;;19.40;95.00;;;;;;5135226;27;19951;-47
2022/10/29 13:22:51;;;;;;;;;;;19.40;94.90;;;;;;5135686;27;19953;-48
2022/10/29 13:25:31;;;;;;;;;;;19.40;95.00;;;;;;5135121;27;19912;-45
2022/10/29 13:27:57;;;;;;;;;;;19.40;95.00;;;;;;5134887;27;19912;-44
2022/10/29 13:30:26;;;;;;;;;;;19.40;94.90;;;;;;5134963;27;19965;-46
2022/10/29 13:32:52;;;;;;;;;;;19.40;95.00;;;;;;5134705;27;19908;-45
2022/10/29 13:35:18;;;;;;;;;;;19.40;95.00;;;;;;5135182;27;19907;-47
2022/10/29 13:37:46;;;;;;;;;;;19.40;94.90;;;;;;5135354;27;19929;-44
2022/10/29 13:40:21;;;;;;;;;;;19.40;94.90;;;;;;5135023;27;20311;-45
2022/10/29 13:43:07;;;;;;;;;;;19.40;94.90;;;;;;5134881;27;19911;-46
2022/10/29 13:45:33;;;;;;;;;;;19.40;94.90;;;;;;5120097;27;19914;-45
2022/10/29 13:48:16;;;;;;;;;;;19.40;94.90;;;;;;5134766;27;19922;-44
2022/10/29 13:50:42;;;;;;;;;;;19.30;94.90;;;;;;5135243;27;19965;-44
2022/10/29 13:53:11;;;;;;;;;;;19.30;94.90;;;;;;5134925;27;19907;-47
2022/10/29 13:55:38;;;;;;;;;;;19.40;94.90;;;;;;5135002;27;19908;-46
2022/10/29 13:58:09;;;;;;;;;;;19.40;94.90;;;;;;5134762;27;19907;-48
2022/10/29 14:00:35;;;;;;;;;;;19.40;94.90;;;;;;5134723;27;20342;-45
2022/10/29 14:03:10;;;;;;;;;;;19.40;94.90;;;;;;5134346;27;19914;-45
2022/10/29 14:05:38;;;;;;;;;;;19.30;94.90;;;;;;5134520;27;19908;-47
2022/10/29 14:08:04;;;;;;;;;;;19.40;94.90;;;;;;5134322;27;19919;-45
2022/10/29 14:10:31;;;;;;;;;;;19.40;94.90;;;;;;5134547;27;19965;-45
2022/10/29 14:13:06;;;;;;;;;;;19.40;94.90;;;;;;5134448;27;19907;-45
2022/10/29 14:15:33;;;;;;;;;;;19.30;94.90;;;;;;5116004;28;19913;-45
2022/10/29 14:18:15;;;;;;;;;;;19.40;94.90;;;;;;5134423;28;19961;-47
2022/10/29 14:20:40;;;;;;;;;;;19.30;94.90;;;;;;5133922;28;20006;-45
2022/10/29 14:23:06;;;;;;;;;;;19.40;94.90;;;;;;5134323;28;19943;-52
2022/10/29 14:25:34;;;;;;;;;;;19.40;94.90;;;;;;5134383;28;20334;-45